Time;durP1;ratioP1;P1;durP2;ratioP2;P2;SDS_P1;SDS_P2;PMS_P1;PMS_P2;Temp;Humidity;BMP_temperature;BMP_pressure;BME280_temperature;BME280_humidity;BME280_pressure;Samples;Min_cycle;Max_cycle;Signal;HPM_P1;HPM_P2
2021/10/30 00:01:31;;;;;;;24.67;18.73;;;;;;;8.48;100.00;101142.59;1672554;85;21118;-68
2021/10/30 00:03:57;;;;;;;24.05;18.20;;;;;;;8.43;100.00;101139.17;1674106;85;21749;-68
2021/10/30 00:06:24;;;;;;;23.10;18.40;;;;;;;8.40;100.00;101135.53;1674650;85;21022;-69
2021/10/30 00:08:50;;;;;;;19.77;16.82;;;;;;;8.39;100.00;101137.92;1674543;85;21002;-70
2021/10/30 00:11:17;;;;;;;25.85;19.82;;;;;;;8.43;100.00;101145.05;1674573;85;21043;-70
2021/10/30 00:13:44;;;;;;;21.85;16.62;;;;;;;8.48;100.00;101137.23;1673542;85;21110;-68
2021/10/30 00:16:10;;;;;;;25.05;19.30;;;;;;;8.52;100.00;101135.29;1668426;85;21133;-68
2021/10/30 00:18:37;;;;;;;24.57;17.37;;;;;;;8.52;100.00;101136.62;1674614;85;22301;-67
2021/10/30 00:21:03;;;;;;;23.47;19.37;;;;;;;8.47;100.00;101135.06;1673342;85;21552;-68
2021/10/30 00:23:30;;;;;;;24.02;18.45;;;;;;;8.47;100.00;101127.53;1651422;86;21059;-69
2021/10/30 00:25:56;;;;;;;23.12;17.30;;;;;;;8.46;100.00;101136.08;1645519;86;21083;-70
2021/10/30 00:28:22;;;;;;;25.77;20.65;;;;;;;8.45;100.00;101138.44;1632726;86;21164;-69
2021/10/30 00:30:49;;;;;;;21.00;15.85;;;;;;;8.46;100.00;101129.89;1664057;86;21050;-69
2021/10/30 00:33:15;;;;;;;28.32;20.02;;;;;;;8.53;100.00;101132.09;1640039;85;20963;-68
2021/10/30 00:35:41;;;;;;;23.90;19.37;;;;;;;8.52;100.00;101133.95;1658224;84;21000;-69
2021/10/30 00:38:08;;;;;;;25.68;17.80;;;;;;;8.53;100.00;101132.92;1686380;84;21086;-70
2021/10/30 00:40:35;;;;;;;24.65;19.17;;;;;;;8.50;100.00;101133.31;1684487;85;21083;-69
2021/10/30 00:43:01;;;;;;;25.35;18.05;;;;;;;8.51;100.00;101140.84;1684877;84;21042;-69
2021/10/30 00:45:29;;;;;;;23.75;15.13;;;;;;;8.54;100.00;101139.92;1684514;84;21049;-69
2021/10/30 00:47:55;;;;;;;27.67;19.50;;;;;;;8.61;100.00;101142.13;1661299;84;21054;-73
2021/10/30 00:50:22;;;;;;;25.32;19.17;;;;;;;8.62;100.00;101142.95;1689416;85;21019;-71
2021/10/30 00:52:49;;;;;;;23.62;18.00;;;;;;;8.60;100.00;101142.31;1685091;84;21091;-72
2021/10/30 00:55:16;;;;;;;26.12;19.57;;;;;;;8.55;100.00;101134.87;1680198;84;21354;-72
2021/10/30 00:57:43;;;;;;;21.17;15.50;;;;;;;8.54;100.00;101130.53;1684574;84;20912;-72
2021/10/30 01:00:11;;;;;;;25.85;19.30;;;;;;;8.49;100.00;101138.34;1688084;85;20955;-72
2021/10/30 01:02:38;;;;;;;20.52;15.30;;;;;;;8.42;100.00;101131.32;1689383;85;21050;-71
2021/10/30 01:05:05;;;;;;;22.82;16.30;;;;;;;8.41;100.00;101132.34;1684502;85;21268;-71
2021/10/30 01:07:34;;;;;;;24.70;15.20;;;;;;;8.33;100.00;101133.36;1689278;85;20955;-72
2021/10/30 01:10:00;;;;;;;24.07;17.32;;;;;;;8.25;100.00;101132.96;1684742;83;21062;-72
2021/10/30 01:12:27;;;;;;;21.48;16.45;;;;;;;8.21;100.00;101134.91;1669747;84;21083;-72
2021/10/30 01:14:54;;;;;;;36.38;23.62;;;;;;;8.22;100.00;101132.55;1652315;84;21149;-72
2021/10/30 01:17:20;;;;;;;27.17;19.15;;;;;;;8.26;100.00;101131.11;1638994;86;21170;-73
2021/10/30 01:19:53;;;;;;;21.75;15.95;;;;;;;8.30;100.00;101134.56;1667663;86;21031;-71
2021/10/30 01:22:21;;;;;;;21.85;15.35;;;;;;;8.34;100.00;101131.51;1654934;85;20990;-71
2021/10/30 01:24:48;;;;;;;23.22;17.02;;;;;;;8.34;100.00;101132.34;1689263;83;21027;-70
2021/10/30 01:27:16;;;;;;;25.97;18.77;;;;;;;8.21;100.00;101129.54;1689281;85;21571;-70
2021/10/30 01:29:43;;;;;;;26.50;16.48;;;;;;;8.17;100.00;101125.10;1686065;84;21012;-73
2021/10/30 01:32:09;;;;;;;26.33;16.97;;;;;;;8.23;100.00;101124.31;1687562;85;20986;-72
2021/10/30 01:34:36;;;;;;;24.32;16.93;;;;;;;8.23;100.00;101126.16;1685034;85;21011;-71
2021/10/30 01:37:02;;;;;;;25.10;17.92;;;;;;;8.25;100.00;101126.77;1650094;85;21055;-72
2021/10/30 01:39:29;;;;;;;25.15;16.87;;;;;;;8.21;100.00;101129.03;1642912;86;21464;-72
2021/10/30 01:41:56;;;;;;;26.90;18.82;;;;;;;8.30;100.00;101132.39;1646909;87;21622;-71
2021/10/30 01:44:22;;;;;;;25.32;17.95;;;;;;;8.27;100.00;101134.94;1668996;85;21517;-73
2021/10/30 01:46:48;;;;;;;24.90;18.40;;;;;;;8.23;100.00;101137.71;1675648;85;21475;-71
2021/10/30 01:49:15;;;;;;;24.72;15.32;;;;;;;8.17;100.00;101140.34;1675552;84;21563;-72
2021/10/30 01:51:41;;;;;;;25.88;16.97;;;;;;;8.17;100.00;101133.65;1696569;84;21011;-74
2021/10/30 01:54:07;;;;;;;26.30;16.52;;;;;;;8.16;100.00;101138.18;1676488;85;21861;-72
2021/10/30 01:56:34;;;;;;;23.87;17.77;;;;;;;8.14;100.00;101132.20;1662512;85;21527;-73
2021/10/30 01:59:01;;;;;;;25.27;17.85;;;;;;;8.17;100.00;101133.65;1629721;85;20998;-71
2021/10/30 02:01:27;;;;;;;25.92;18.25;;;;;;;8.22;100.00;101133.38;1675919;85;21512;-72
2021/10/30 02:03:54;;;;;;;27.93;18.17;;;;;;;8.27;100.00;101136.28;1681407;84;21038;-72
2021/10/30 02:06:20;;;;;;;24.23;16.67;;;;;;;8.36;100.00;101136.14;1687875;85;21772;-71
2021/10/30 02:08:47;;;;;;;27.35;17.98;;;;;;;8.39;100.00;101131.73;1686559;84;21543;-72
2021/10/30 02:11:13;;;;;;;30.88;18.12;;;;;;;8.40;100.00;101136.88;1688599;84;20939;-70
2021/10/30 02:13:40;;;;;;;22.05;16.40;;;;;;;8.40;100.00;101132.86;1675483;84;20954;-72
2021/10/30 02:16:06;;;;;;;27.30;17.55;;;;;;;8.35;100.00;101136.65;1664304;85;21513;-71
2021/10/30 02:18:32;;;;;;;22.27;16.50;;;;;;;8.28;100.00;101135.77;1646851;85;21905;-71
2021/10/30 02:20:58;;;;;;;26.48;15.75;;;;;;;8.33;100.00;101133.36;1642865;85;21624;-72
2021/10/30 02:23:25;;;;;;;23.38;15.83;;;;;;;8.40;100.00;101138.72;1686719;83;21022;-72
2021/10/30 02:25:51;;;;;;;21.97;16.10;;;;;;;8.39;100.00;101137.92;1686941;85;20963;-72
2021/10/30 02:28:17;;;;;;;31.97;19.75;;;;;;;8.33;100.00;101138.72;1686896;84;21516;-73
2021/10/30 02:30:43;;;;;;;29.50;18.48;;;;;;;8.31;100.00;101141.59;1686821;84;21127;-71
2021/10/30 02:33:10;;;;;;;27.15;18.40;;;;;;;8.40;100.00;101138.22;1672917;84;21481;-71
2021/10/30 02:35:36;;;;;;;35.25;19.50;;;;;;;8.43;100.00;101149.06;1689491;84;21078;-73
2021/10/30 02:38:03;;;;;;;26.60;17.32;;;;;;;8.39;100.00;101143.80;1675296;84;20995;-72
2021/10/30 02:40:29;;;;;;;25.97;16.65;;;;;;;8.37;100.00;101146.67;1673336;84;21066;-75
2021/10/30 02:42:56;;;;;;;28.23;17.48;;;;;;;8.40;100.00;101154.81;1645802;85;21701;-73
2021/10/30 02:45:22;;;;;;;30.27;18.75;;;;;;;8.43;100.00;101149.90;1682567;84;20935;-74
2021/10/30 02:47:49;;;;;;;25.82;16.75;;;;;;;8.49;100.00;101145.59;1689312;84;21045;-73
2021/10/30 02:50:16;;;;;;;33.15;18.55;;;;;;;8.47;100.00;101151.15;1687934;84;20959;-74
2021/10/30 02:52:42;;;;;;;22.40;15.63;;;;;;;8.45;100.00;101152.36;1645377;85;21027;-73
2021/10/30 02:55:09;;;;;;;25.95;17.25;;;;;;;8.42;100.00;101155.45;1644348;87;21154;-74
2021/10/30 02:57:37;;;;;;;33.50;18.75;;;;;;;8.41;100.00;101156.47;1618019;87;21078;-73
2021/10/30 03:02:55;;;;;;;27.00;16.82;;;;;;;8.50;100.00;101160.63;1614280;88;21055;-71
2021/10/30 03:05:21;;;;;;;29.18;18.92;;;;;;;8.43;100.00;101159.28;1610523;88;21092;-72
2021/10/30 03:07:47;;;;;;;27.13;16.65;;;;;;;8.38;100.00;101157.72;1619777;88;21230;-73
2021/10/30 03:10:14;;;;;;;28.77;19.07;;;;;;;8.36;100.00;101154.91;1634888;87;21047;-72
2021/10/30 03:12:40;;;;;;;34.05;21.30;;;;;;;8.34;100.00;101157.80;1652139;86;21528;-72
2021/10/30 03:15:08;;;;;;;22.32;16.23;;;;;;;8.35;100.00;101155.92;1634126;86;21090;-72
2021/10/30 03:17:35;;;;;;;28.70;18.07;;;;;;;8.39;100.00;101160.72;1619709;88;21025;-73
2021/10/30 03:20:01;;;;;;;27.07;18.85;;;;;;;8.36;100.00;101163.77;1616871;87;21112;-72
2021/10/30 03:22:28;;;;;;;32.40;18.92;;;;;;;8.36;100.00;101164.28;1615256;87;21023;-71
2021/10/30 03:24:55;;;;;;;24.63;15.45;;;;;;;8.39;100.00;101164.73;1644290;85;21039;-73
2021/10/30 03:27:21;;;;;;;26.25;18.37;;;;;;;8.45;100.00;101171.12;1614453;87;21075;-73
2021/10/30 03:29:48;;;;;;;21.52;14.05;;;;;;;8.40;100.00;101167.70;1615075;88;21086;-73
2021/10/30 03:32:15;;;;;;;24.00;15.83;;;;;;;8.43;100.00;101163.31;1588423;88;21214;-73
2021/10/30 03:34:42;;;;;;;22.60;14.98;;;;;;;8.44;100.00;101161.45;1587844;90;20983;-72
2021/10/30 03:37:08;;;;;;;26.50;16.05;;;;;;;8.45;100.00;101159.06;1587877;90;21006;-72
2021/10/30 03:39:36;;;;;;;25.25;14.47;;;;;;;8.48;100.00;101162.20;1604372;87;21018;-71
2021/10/30 03:42:04;;;;;;;24.10;15.18;;;;;;;8.53;100.00;101165.11;1640813;87;21015;-74
2021/10/30 03:44:30;;;;;;;26.20;16.50;;;;;;;8.54;100.00;101164.05;1604492;87;21018;-72
2021/10/30 03:46:56;;;;;;;22.07;14.68;;;;;;;8.51;100.00;101165.80;1614930;88;21037;-72
2021/10/30 03:49:22;;;;;;;20.12;12.85;;;;;;;8.51;100.00;101167.66;1638031;87;20994;-72
2021/10/30 03:51:49;;;;;;;23.42;15.43;;;;;;;8.47;100.00;101159.70;1618744;86;21001;-72
2021/10/30 03:54:16;;;;;;;23.27;14.33;;;;;;;8.43;100.00;101162.48;1614604;88;21082;-73
2021/10/30 03:56:42;;;;;;;21.57;13.70;;;;;;;8.43;100.00;101162.48;1614509;88;21158;-75
2021/10/30 03:59:09;;;;;;;22.45;15.03;;;;;;;8.44;100.00;101169.50;1611001;88;21105;-74
2021/10/30 04:01:35;;;;;;;22.77;15.10;;;;;;;8.39;100.00;101170.61;1613994;87;20947;-74
2021/10/30 04:04:02;;;;;;;24.43;15.93;;;;;;;8.31;100.00;101166.22;1613265;88;21551;-74
2021/10/30 04:06:29;;;;;;;23.60;14.70;;;;;;;8.31;100.00;101160.35;1606750;87;21526;-74
2021/10/30 04:08:56;;;;;;;22.52;14.87;;;;;;;8.29;100.00;101158.87;1634363;87;21794;-74
2021/10/30 04:11:24;;;;;;;28.30;17.70;;;;;;;8.27;100.00;101163.59;1587822;87;21535;-74
2021/10/30 04:13:51;;;;;;;26.05;17.98;;;;;;;8.24;100.00;101159.98;1567153;90;20979;-75
2021/10/30 04:16:18;;;;;;;24.82;15.10;;;;;;;8.22;100.00;101154.81;1567068;90;21596;-74
2021/10/30 04:18:44;;;;;;;28.87;17.62;;;;;;;8.22;100.00;101153.98;1615417;87;21027;-73
2021/10/30 04:21:12;;;;;;;20.43;14.07;;;;;;;8.22;100.00;101152.13;1617482;87;22098;-73
2021/10/30 04:23:38;;;;;;;24.10;17.05;;;;;;;8.24;100.00;101155.45;1618563;87;21594;-74
2021/10/30 04:26:05;;;;;;;19.90;14.58;;;;;;;8.28;100.00;101151.86;1605776;87;21092;-73
2021/10/30 04:28:32;;;;;;;21.73;15.05;;;;;;;8.34;100.00;101156.97;1587917;88;21111;-73
2021/10/30 04:31:03;;;;;;;19.37;14.95;;;;;;;8.35;100.00;101150.05;1637427;87;21102;-72
2021/10/30 04:33:27;;;;;;;19.27;14.93;;;;;;;8.32;100.00;101147.78;1639420;86;21191;-74
2021/10/30 04:35:53;;;;;;;25.25;16.77;;;;;;;8.25;100.00;101149.55;1639425;87;20971;-75
2021/10/30 04:38:20;;;;;;;26.37;17.20;;;;;;;8.29;100.00;101151.70;1634321;87;21054;-74
2021/10/30 04:40:46;;;;;;;25.25;16.60;;;;;;;8.31;100.00;101156.33;1589076;88;21035;-72
2021/10/30 04:43:12;;;;;;;26.77;17.95;;;;;;;8.37;100.00;101156.05;1586659;90;21571;-70
2021/10/30 04:45:40;;;;;;;24.37;14.70;;;;;;;8.35;100.00;101158.09;1599784;87;21565;-72
2021/10/30 04:48:07;;;;;;;22.82;14.43;;;;;;;8.32;100.00;101158.50;1595451;88;21543;-72
2021/10/30 04:50:34;;;;;;;31.42;18.12;;;;;;;8.33;100.00;101166.03;1587550;90;21530;-78
2021/10/30 04:53:01;;;;;;;29.45;17.57;;;;;;;8.33;100.00;101158.83;1585190;89;21020;-73
2021/10/30 04:55:27;;;;;;;28.07;18.27;;;;;;;8.27;100.00;101164.42;1583344;90;21477;-72
2021/10/30 04:57:54;;;;;;;26.33;17.07;;;;;;;8.23;100.00;101169.88;1584293;89;21104;-74
2021/10/30 05:00:20;;;;;;;22.67;15.28;;;;;;;8.21;100.00;101164.38;1607776;87;20975;-74
2021/10/30 05:02:48;;;;;;;27.25;17.17;;;;;;;8.19;100.00;101173.98;1614256;87;20997;-74
2021/10/30 05:05:14;;;;;;;26.17;18.02;;;;;;;8.20;100.00;101174.27;1600250;87;21095;-73
2021/10/30 05:07:42;;;;;;;26.87;18.27;;;;;;;8.27;100.00;101164.42;1624726;87;20963;-74
2021/10/30 05:10:10;;;;;;;22.77;15.58;;;;;;;8.26;100.00;101172.66;1616280;87;21223;-73
2021/10/30 05:12:36;;;;;;;25.52;15.40;;;;;;;8.26;100.00;101169.98;1614527;88;20951;-72
2021/10/30 05:15:04;;;;;;;21.07;15.05;;;;;;;8.26;100.00;101176.17;1640559;87;21568;-72
2021/10/30 05:17:30;;;;;;;25.17;17.77;;;;;;;8.27;100.00;101174.32;1609067;88;20998;-74
2021/10/30 05:19:57;;;;;;;26.48;16.42;;;;;;;8.29;100.00;101177.64;1592026;87;21601;-73
2021/10/30 05:22:23;;;;;;;21.65;15.53;;;;;;;8.25;100.00;101178.53;1614490;87;21102;-74
2021/10/30 05:24:50;;;;;;;20.60;14.98;;;;;;;8.21;100.00;101179.13;1633356;86;21574;-78
2021/10/30 05:27:16;;;;;;;24.37;16.32;;;;;;;8.21;100.00;101177.28;1614495;87;21063;-72
2021/10/30 05:29:44;;;;;;;31.17;18.95;;;;;;;8.20;100.00;101179.63;1614463;88;21018;-73
2021/10/30 05:32:10;;;;;;;22.75;15.10;;;;;;;8.30;100.00;101179.30;1639867;87;21066;-72
2021/10/30 05:34:38;;;;;;;25.85;16.52;;;;;;;8.38;100.00;101180.50;1637247;87;21035;-74
2021/10/30 05:37:10;;;;;;;26.37;14.45;;;;;;;8.35;100.00;101180.05;1637068;87;21019;-71
2021/10/30 05:39:39;;;;;;;23.35;15.78;;;;;;;8.28;100.00;101181.34;1630682;87;21110;-74
2021/10/30 05:42:08;;;;;;;31.27;17.87;;;;;;;8.24;100.00;101188.96;1618224;87;21624;-72
2021/10/30 05:44:34;;;;;;;25.57;17.85;;;;;;;8.27;100.00;101188.55;1590656;88;21101;-73
2021/10/30 05:47:00;;;;;;;25.45;18.05;;;;;;;8.30;100.00;101190.03;1608004;89;21105;-72
2021/10/30 05:49:27;;;;;;;30.40;19.12;;;;;;;8.36;100.00;101186.56;1607017;87;21101;-72
2021/10/30 05:51:53;;;;;;;28.20;17.35;;;;;;;8.35;100.00;101193.45;1609251;89;21557;-72
2021/10/30 05:54:20;;;;;;;26.20;17.30;;;;;;;8.29;100.00;101193.25;1609259;88;21047;-74
2021/10/30 05:56:47;;;;;;;26.40;17.37;;;;;;;8.29;100.00;101192.39;1606816;89;21142;-71
2021/10/30 05:59:13;;;;;;;25.20;17.48;;;;;;;8.33;100.00;101192.33;1608515;87;21823;-73
2021/10/30 06:01:40;;;;;;;23.62;16.27;;;;;;;8.34;100.00;101197.19;1614939;87;21543;-71
2021/10/30 06:04:06;;;;;;;23.83;16.60;;;;;;;8.34;100.00;101200.70;1620436;87;21539;-72
2021/10/30 06:06:34;;;;;;;25.30;17.82;;;;;;;8.33;100.00;101200.38;1592755;90;21038;-71
2021/10/30 06:09:01;;;;;;;22.07;15.90;;;;;;;8.30;100.00;101205.60;1592814;90;21087;-76
2021/10/30 06:11:27;;;;;;;25.08;17.05;;;;;;;8.38;100.00;101202.46;1596321;88;21156;-70
2021/10/30 06:13:53;;;;;;;24.55;16.20;;;;;;;8.42;100.00;101202.38;1605461;87;21079;-71
2021/10/30 06:16:19;;;;;;;23.00;15.23;;;;;;;8.42;100.00;101204.55;1623848;87;21562;-73
2021/10/30 06:18:46;;;;;;;24.27;16.07;;;;;;;8.40;100.00;101203.07;1604223;87;21091;-73
2021/10/30 06:21:13;;;;;;;24.63;15.78;;;;;;;8.38;100.00;101205.14;1615681;87;21175;-72
2021/10/30 06:23:40;;;;;;;24.00;15.32;;;;;;;8.36;100.00;101198.63;1593153;88;21105;-74
2021/10/30 06:26:07;;;;;;;24.75;16.12;;;;;;;8.39;100.00;101206.80;1622814;87;21505;-71
2021/10/30 06:28:34;;;;;;;26.80;16.32;;;;;;;8.39;100.00;101203.61;1644428;85;21533;-72
2021/10/30 06:31:00;;;;;;;24.72;16.85;;;;;;;8.35;100.00;101204.17;1638866;87;21006;-71
2021/10/30 06:33:27;;;;;;;27.40;19.62;;;;;;;8.30;100.00;101197.56;1625550;87;20986;-72
2021/10/30 06:35:54;;;;;;;28.70;17.12;;;;;;;8.34;100.00;101209.25;1597971;88;21046;-72
2021/10/30 06:38:21;;;;;;;22.35;16.17;;;;;;;8.37;100.00;101211.02;1639237;87;20987;-71
2021/10/30 06:40:48;;;;;;;23.12;17.55;;;;;;;8.39;100.00;101211.66;1615097;87;21096;-76
2021/10/30 06:43:14;;;;;;;24.98;16.90;;;;;;;8.35;100.00;101211.70;1621534;87;21046;-75
2021/10/30 06:45:43;;;;;;;23.80;16.50;;;;;;;8.27;100.00;101218.04;1598753;88;21070;-74
2021/10/30 06:48:11;;;;;;;23.62;15.32;;;;;;;8.14;100.00;101211.27;1597466;88;21110;-72
2021/10/30 06:50:37;;;;;;;21.48;16.02;;;;;;;8.06;100.00;101207.38;1619760;88;20970;-72
2021/10/30 06:53:04;;;;;;;25.62;17.90;;;;;;;8.05;100.00;101208.94;1603330;87;21126;-75
2021/10/30 06:55:31;;;;;;;26.93;18.80;;;;;;;8.07;100.00;101206.36;1617989;88;21042;-74
2021/10/30 06:57:58;;;;;;;26.15;16.42;;;;;;;8.06;100.00;101209.23;1617846;87;21073;-75
2021/10/30 07:00:24;;;;;;;26.17;17.37;;;;;;;8.04;100.00;101205.94;1627591;87;21519;-73
2021/10/30 07:02:53;;;;;;;30.97;18.37;;;;;;;8.05;100.00;101212.95;1609815;87;21055;-76
2021/10/30 07:05:21;;;;;;;27.22;17.75;;;;;;;8.01;100.00;101215.72;1607541;88;21048;-71
2021/10/30 07:07:48;;;;;;;27.48;18.75;;;;;;;7.99;100.00;101215.07;1629774;88;21686;-73
2021/10/30 07:10:15;;;;;;;27.42;17.98;;;;;;;7.96;100.00;101214.13;1607396;88;21035;-72
2021/10/30 07:12:41;;;;;;;26.52;18.67;;;;;;;8.00;100.00;101222.09;1611270;88;21568;-75
2021/10/30 07:15:10;;;;;;;25.17;16.27;;;;;;;7.97;100.00;101217.10;1628582;88;21050;-71
2021/10/30 07:17:39;;;;;;;26.35;16.00;;;;;;;7.92;100.00;101220.37;1587278;89;20939;-74
2021/10/30 07:20:08;;;;;;;20.27;14.47;;;;;;;7.78;100.00;101222.63;1602235;89;21039;-70
2021/10/30 07:22:45;;;;;;;24.85;17.50;;;;;;;7.78;100.00;101232.01;1582170;89;21076;-71
2021/10/30 07:25:12;;;;;;;26.42;16.40;;;;;;;7.81;100.00;101225.77;1582187;89;21680;-71
2021/10/30 07:27:39;;;;;;;27.65;18.70;;;;;;;7.90;100.00;101230.47;1603890;89;20999;-71
2021/10/30 07:30:07;;;;;;;22.90;15.25;;;;;;;7.88;100.00;101225.80;1582271;89;21088;-74
2021/10/30 07:32:33;;;;;;;26.70;18.32;;;;;;;7.84;100.00;101229.39;1582683;89;21571;-70
2021/10/30 07:35:00;;;;;;;20.12;15.32;;;;;;;7.80;100.00;101233.99;1600903;89;21019;-71
2021/10/30 07:37:26;;;;;;;30.65;21.15;;;;;;;7.75;100.00;101230.56;1630035;88;21042;-73
2021/10/30 07:39:53;;;;;;;26.45;17.42;;;;;;;7.75;100.00;101234.58;1607781;88;21553;-71
2021/10/30 07:42:19;;;;;;;31.95;19.35;;;;;;;7.79;100.00;101230.48;1607223;88;22349;-71
2021/10/30 07:44:46;;;;;;;36.05;20.57;;;;;;;7.76;100.00;101241.59;1575905;89;59040;-70
2021/10/30 07:47:12;;;;;;;26.20;19.30;;;;;;;7.76;100.00;101237.58;1596364;89;21050;-70
2021/10/30 07:49:39;;;;;;;38.02;23.55;;;;;;;7.79;100.00;101237.18;1596422;89;21240;-73
2021/10/30 07:52:08;;;;;;;37.85;20.43;;;;;;;7.76;100.00;101232.22;1596875;89;21000;-72
2021/10/30 07:54:35;;;;;;;35.78;22.40;;;;;;;7.85;100.00;101235.08;1603122;88;21112;-70
2021/10/30 07:57:03;;;;;;;35.80;23.02;;;;;;;7.88;100.00;101240.03;1607569;88;21591;-71
2021/10/30 07:59:31;;;;;;;29.75;19.35;;;;;;;7.96;100.00;101243.61;1630024;88;21055;-70
2021/10/30 08:01:59;;;;;;;28.47;20.82;;;;;;;8.05;100.00;101243.27;1631098;87;21782;-70
2021/10/30 08:04:27;;;;;;;35.25;23.80;;;;;;;8.06;100.00;101246.74;1623541;87;21610;-71
2021/10/30 08:06:54;;;;;;;30.30;20.02;;;;;;;8.05;100.00;101251.30;1646445;87;21082;-74
2021/10/30 08:09:22;;;;;;;32.83;21.57;;;;;;;8.00;100.00;101243.52;1623746;87;21030;-70
2021/10/30 08:11:48;;;;;;;34.88;21.42;;;;;;;7.89;100.00;101242.20;1646226;87;21046;-72
2021/10/30 08:14:16;;;;;;;28.45;19.00;;;;;;;7.83;100.00;101244.30;1617262;88;21324;-70
2021/10/30 08:16:42;;;;;;;29.20;19.98;;;;;;;7.87;100.00;101242.89;1598014;88;21196;-71
2021/10/30 08:19:10;;;;;;;30.37;19.73;;;;;;;7.83;100.00;101242.46;1619802;87;21032;-70
2021/10/30 08:21:37;;;;;;;29.18;19.50;;;;;;;7.80;100.00;101246.05;1618748;88;21094;-70
2021/10/30 08:24:04;;;;;;;27.60;19.17;;;;;;;7.76;100.00;101242.10;1619884;87;21032;-71
2021/10/30 08:26:34;;;;;;;26.82;20.05;;;;;;;7.79;100.00;101247.06;1619874;88;21799;-69
2021/10/30 08:29:00;;;;;;;33.38;22.02;;;;;;;7.81;100.00;101248.54;1619714;88;20995;-72
2021/10/30 08:31:26;;;;;;;31.65;22.52;;;;;;;7.87;100.00;101251.77;1618512;88;20963;-74
2021/10/30 08:33:56;;;;;;;28.95;20.68;;;;;;;7.92;100.00;101251.17;1597911;87;21223;-70
2021/10/30 08:36:25;;;;;;;25.97;20.02;;;;;;;7.86;100.00;101243.94;1597985;88;21075;-71
2021/10/30 08:38:51;;;;;;;31.52;22.77;;;;;;;7.84;100.00;101255.34;1618369;88;21173;-71
2021/10/30 08:41:18;;;;;;;35.63;23.92;;;;;;;7.85;100.00;101248.97;1619713;88;20992;-70
2021/10/30 08:43:44;;;;;;;36.58;24.07;;;;;;;7.88;100.00;101246.73;1620058;88;21560;-70
2021/10/30 08:46:11;;;;;;;39.33;24.87;;;;;;;7.88;100.00;101240.53;1588606;89;21432;-69
2021/10/30 08:48:37;;;;;;;35.73;25.25;;;;;;;7.84;100.00;101241.45;1608663;87;21034;-71
2021/10/30 08:51:04;;;;;;;31.82;20.68;;;;;;;7.88;100.00;101236.02;1645218;87;21626;-70
2021/10/30 08:53:30;;;;;;;35.65;23.57;;;;;;;7.97;100.00;101242.55;1646264;87;21060;-71
2021/10/30 08:56:02;;;;;;;36.65;25.40;;;;;;;7.96;100.00;101251.09;1646350;87;21489;-72
2021/10/30 08:58:27;;;;;;;33.85;24.18;;;;;;;7.94;100.00;101257.19;1622147;87;21058;-71
2021/10/30 09:00:57;;;;;;;34.70;23.80;;;;;;;7.95;100.00;101252.15;1622324;87;21083;-74
2021/10/30 09:03:24;;;;;;;28.73;20.72;;;;;;;7.90;100.00;101247.88;1644416;87;22082;-71
2021/10/30 09:05:55;;;;;;;37.25;24.40;;;;;;;7.92;100.00;101245.81;1643371;87;20959;-71
2021/10/30 09:08:26;;;;;;;31.55;23.35;;;;;;;7.96;100.00;101250.30;1643252;87;21039;-71
2021/10/30 09:10:57;;;;;;;35.25;25.27;;;;;;;7.95;100.00;101244.11;1628443;86;20975;-76
2021/10/30 09:13:29;;;;;;;34.63;23.15;;;;;;;7.89;100.00;101242.20;1616861;87;21508;-74
2021/10/30 09:15:56;;;;;;;35.15;23.52;;;;;;;7.85;100.00;101232.91;1676497;85;21051;-70
2021/10/30 09:18:40;;;;;;;25.12;18.67;;;;;;;7.81;100.00;101240.50;1676117;85;21112;-71
2021/10/30 09:21:15;;;;;;;27.48;22.93;;;;;;;7.83;100.00;101238.44;1675751;84;21019;-74
2021/10/30 09:23:49;;;;;;;42.08;28.27;;;;;;;7.83;100.00;101236.27;1676309;85;21103;-72
2021/10/30 09:26:25;;;;;;;36.20;24.55;;;;;;;7.76;100.00;101238.92;1673731;85;21028;-70
2021/10/30 09:28:58;;;;;;;35.60;24.30;;;;;;;7.75;100.00;101240.44;1648015;85;21191;-71
2021/10/30 09:31:26;;;;;;;32.73;22.42;;;;;;;7.72;100.00;101236.28;1648327;85;21548;-72
2021/10/30 09:34:04;;;;;;;34.58;23.55;;;;;;;7.72;100.00;101242.17;1643641;86;21194;-71
2021/10/30 09:36:35;;;;;;;36.48;24.10;;;;;;;7.74;100.00;101243.63;1649246;86;21568;-74
2021/10/30 09:39:10;;;;;;;37.25;26.23;;;;;;;7.67;100.00;101246.77;1651075;85;21531;-71
2021/10/30 09:41:45;;;;;;;29.85;20.92;;;;;;;7.71;100.00;101245.36;1649325;85;21106;-73
2021/10/30 09:44:20;;;;;;;20.65;16.23;;;;;;;7.74;100.00;101242.80;1648273;85;21012;-75
2021/10/30 09:46:57;;;;;;;28.12;18.32;;;;;;;7.70;100.00;101240.19;1628966;85;21043;-70
2021/10/30 09:49:26;;;;;;;27.87;21.12;;;;;;;7.72;100.00;101237.62;1649089;85;21067;-70
2021/10/30 09:51:54;;;;;;;24.45;19.77;;;;;;;7.74;100.00;101234.76;1649310;85;21059;-77
2021/10/30 09:54:37;;;;;;;22.15;16.35;;;;;;;7.71;100.00;101236.49;1649235;85;21525;-73
2021/10/30 09:57:07;;;;;;;26.27;20.55;;;;;;;7.73;100.00;101231.76;1616963;87;21047;-71
2021/10/30 09:59:37;;;;;;;25.82;19.37;;;;;;;7.69;100.00;101227.30;1635049;86;21072;-70
2021/10/30 10:02:05;;;;;;;25.80;21.57;;;;;;;7.69;100.00;101228.64;1676437;84;21016;-74
2021/10/30 10:04:32;;;;;;;23.75;19.42;;;;;;;7.70;100.00;101219.59;1678509;85;21072;-75
2021/10/30 10:06:59;;;;;;;26.05;19.27;;;;;;;7.69;100.00;101221.95;1611285;85;21179;-71
2021/10/30 10:09:25;;;;;;;27.42;20.15;;;;;;;7.66;100.00;101216.16;1627448;85;21057;-70
2021/10/30 10:11:52;;;;;;;26.15;17.23;;;;;;;7.71;100.00;101216.41;1657946;85;21109;-71
2021/10/30 10:14:21;;;;;;;19.77;14.98;;;;;;;7.79;100.00;101218.43;1656123;85;21275;-73
2021/10/30 10:16:50;;;;;;;22.67;17.42;;;;;;;7.87;100.00;101212.09;1678748;85;21023;-73
2021/10/30 10:19:19;;;;;;;21.75;17.30;;;;;;;7.87;100.00;101219.61;1647415;85;22114;-76
2021/10/30 10:21:45;;;;;;;22.52;16.70;;;;;;;7.87;100.00;101207.56;1621243;87;21019;-72
2021/10/30 10:24:15;;;;;;;21.15;17.23;;;;;;;7.98;100.00;101215.58;1646340;87;20992;-73
2021/10/30 10:26:50;;;;;;;19.45;16.60;;;;;;;8.04;100.00;101217.48;1636033;87;21548;-72
2021/10/30 10:29:43;;;;;;;22.10;14.85;;;;;;;8.08;100.00;101214.72;1636267;87;21048;-69
2021/10/30 10:32:19;;;;;;;17.62;14.85;;;;;;;8.13;100.00;101210.94;1640505;87;21152;-73
2021/10/30 10:34:46;;;;;;;23.35;16.95;;;;;;;8.04;100.00;101212.63;1599123;88;21027;-72
2021/10/30 10:37:17;;;;;;;24.55;19.23;;;;;;;7.98;100.00;101214.75;1619616;88;21543;-74
2021/10/30 10:39:48;;;;;;;24.60;17.55;;;;;;;7.97;100.00;101209.90;1611661;88;21070;-70
2021/10/30 10:42:39;;;;;;;19.05;15.90;;;;;;;7.95;100.00;101207.11;1628342;87;21506;-72
2021/10/30 10:45:16;;;;;;;23.00;17.90;;;;;;;7.96;100.00;101218.15;1592617;88;21101;-70
2021/10/30 10:47:49;;;;;;;24.05;17.40;;;;;;;7.91;100.00;101212.55;1615219;88;21026;-70
2021/10/30 10:50:25;;;;;;;18.25;13.50;;;;;;;7.97;100.00;101210.41;1660362;86;20965;-69
2021/10/30 10:53:14;;;;;;;21.42;15.55;;;;;;;8.00;100.00;101197.98;1622572;87;21026;-70
2021/10/30 10:55:40;;;;;;;16.17;12.25;;;;;;;7.95;100.00;101199.08;1641830;87;21076;-73
2021/10/30 10:58:08;;;;;;;21.52;15.25;;;;;;;7.92;100.00;101208.31;1592846;88;21155;-70
2021/10/30 11:00:35;;;;;;;21.75;13.90;;;;;;;7.89;100.00;101211.39;1618475;87;21131;-71
2021/10/30 11:03:02;;;;;;;18.95;15.23;;;;;;;7.97;100.00;101206.39;1595307;88;21014;-73
2021/10/30 11:05:34;;;;;;;19.60;14.00;;;;;;;8.02;100.00;101205.29;1609553;89;21564;-71
2021/10/30 11:08:25;;;;;;;17.50;15.53;;;;;;;7.92;100.00;101196.77;1621911;87;21099;-74
2021/10/30 11:11:17;;;;;;;15.40;12.75;;;;;;;7.87;100.00;101201.38;1648287;86;21184;-75
2021/10/30 11:14:03;;;;;;;18.90;14.73;;;;;;;7.92;100.00;101188.22;1655002;85;21059;-70
2021/10/30 11:16:39;;;;;;;18.30;14.70;;;;;;;8.03;100.00;101197.06;1627628;85;21003;-73